Aérodrome :
LOGIN :

S'inscrire | Disclaimer

   EN    FR    IT 

 










Légende :    VFR   VFR Marginal   IFR   IFR Intensif   IFR Très Intensif
Visi : 
Plafond : 
>= 8 km
>= 3000ft
5 à 8 km
1000 à 3000 ft
1500m à 5 km
500 à 1000 ft
800 à 1500m
200 à 500 ft
< 800m
< 200 ft
Symboles :   Orages  Brouillard  Fortes neiges  Fortes précipitations  Vent > 20 kt
SIGMETs :   Divers  Orages  Givrage  Turbulence  Onde Orograph.  Cendres Volcan.







- Altitude de l'aérodrome : 659 ft
- Code IATA : LYN
- Voir les cartes d'approche


LFLY - Lyon Bron

DERNIER METAR :
  • 251200Z AUTO 16003KT 160V230 9999 ///TCU 26/12 Q1016 TEMPO SHRA BECMG 35010KT

METARs EXPIRÉS :
  • 251130Z AUTO 18005KT 130V230 CAVOK 24/11 Q1016 TEMPO SHRA SCT040TCU BKN050 BECMG 35010KT
  • 251100Z AUTO 16008KT 120V190 CAVOK 25/12 Q1017 TEMPO 36010KT
  • 251030Z AUTO 17007KT 140V200 CAVOK 24/11 Q1017 TEMPO 36010KT
  • 251000Z AUTO 15006KT 110V190 CAVOK 23/11 Q1017 TEMPO 36010KT
  • 250930Z AUTO 20004KT 150V230 CAVOK 22/11 Q1018 TEMPO 36010KT

TAF TAF LFLY
Valide du 25 à 12h jusqu'au 26 à 12h UTC


251100Z 2512/2612 20006KT 9999 FEW050 SCT060
PROB40
TEMPO 2512/2517 SCT040TCU BKN050
PROB30
TEMPO 2512/2517 SHRA
BECMG 2513/2515 35010KT
ATIS : +33 4 72 15 87 96
Pas de NOTAMs connus pour ce terrain.



MET'MAP, la Météo Aéronautique d'un coup d'oeil ! - Copyright ORBIFLY Décembre 2007 - Disclaimer

ORBIFLY MET'MAP TEAM :

Programmation & Développement : Alexandra Zaïnal
Conception & Développement : Baudouin d'Aumeries
Co-Programmation & Développement : Marc-Olivier Méhu
Soutien technique & logistique : Manuel Goepfert

Contact : metmap@orbifly.com




SOURCES & CREDITS :

   NOAA